Time;durP1;ratioP1;P1;durP2;ratioP2;P2;SDS_P1;SDS_P2;PMS_P1;PMS_P2;Temp;Humidity;BMP_temperature;BMP_pressure;BME280_temperature;BME280_humidity;BME280_pressure;Samples;Min_cycle;Max_cycle;Signal;HPM_P1;HPM_P2
2020/12/24 00:02:14;;;;;;;1.60;0.98;;;;;;;7.42;100.00;101515.66;5091539;28;20089;-66
2020/12/24 00:04:40;;;;;;;1.52;0.40;;;;;;;7.42;100.00;101515.66;5091224;28;20043;-66
2020/12/24 00:07:06;;;;;;;0.88;0.52;;;;;;;7.43;100.00;101521.91;5091113;28;20035;-66
2020/12/24 00:09:31;;;;;;;1.77;0.50;;;;;;;7.43;100.00;101522.75;5091006;28;20109;-66
2020/12/24 00:11:57;;;;;;;2.67;0.50;;;;;;;7.43;100.00;101528.19;5091169;28;20081;-66
2020/12/24 00:14:23;;;;;;;1.42;0.50;;;;;;;7.43;100.00;101540.94;5091138;28;20089;-66
2020/12/24 00:16:49;;;;;;;2.45;0.50;;;;;;;7.41;100.00;101546.59;5091081;28;20097;-66
2020/12/24 00:19:15;;;;;;;1.50;0.45;;;;;;;7.43;100.00;101560.81;5090926;28;20063;-65
2020/12/24 00:21:40;;;;;;;1.98;0.30;;;;;;;7.43;100.00;101559.97;5091289;28;20060;-66
2020/12/24 00:24:06;;;;;;;0.90;0.50;;;;;;;7.44;100.00;101573.34;5091001;28;20403;-66
2020/12/24 00:26:32;;;;;;;2.78;0.40;;;;;;;7.46;100.00;101593.03;5090787;28;20046;-66
2020/12/24 00:28:59;;;;;;;2.75;0.80;;;;;;;7.48;100.00;101584.69;5090922;28;20035;-65
2020/12/24 00:31:24;;;;;;;2.13;0.90;;;;;;;7.48;100.00;101596.38;5091015;28;20107;-66
2020/12/24 00:33:50;;;;;;;2.15;0.70;;;;;;;7.48;100.00;101612.69;5090731;28;20442;-65
2020/12/24 00:36:16;;;;;;;3.72;0.73;;;;;;;7.49;100.00;101608.94;5092031;28;20047;-65
2020/12/24 00:38:42;;;;;;;3.03;1.20;;;;;;;7.50;100.00;101618.75;5095196;28;20470;-65
2020/12/24 00:41:08;;;;;;;1.90;1.00;;;;;;;7.50;100.00;101632.34;5094898;28;20039;-65
2020/12/24 00:43:34;;;;;;;2.78;1.30;;;;;;;7.52;100.00;101630.28;5093797;28;20028;-65
2020/12/24 00:46:00;;;;;;;2.05;0.88;;;;;;;7.53;100.00;101653.69;5095003;28;20077;-65
2020/12/24 00:48:26;;;;;;;1.15;0.90;;;;;;;7.56;100.00;101663.31;5094709;28;20044;-66
2020/12/24 00:50:52;;;;;;;2.55;0.80;;;;;;;7.57;100.00;101665.84;5094968;28;20474;-65
2020/12/24 00:53:18;;;;;;;4.15;1.00;;;;;;;7.59;100.00;101662.06;5094828;28;20028;-66
2020/12/24 00:55:43;;;;;;;1.83;0.82;;;;;;;7.63;100.00;101687.81;5094832;28;20040;-66
2020/12/24 00:58:09;;;;;;;1.10;0.70;;;;;;;7.64;100.00;101697.66;5094615;28;20046;-66
2020/12/24 01:00:34;;;;;;;1.70;0.60;;;;;;;7.60;100.00;101696.38;5093474;28;20096;-65
2020/12/24 01:03:00;;;;;;;1.35;0.65;;;;;;;7.62;100.00;101727.75;5094497;28;20473;-66
2020/12/24 01:05:25;;;;;;;3.33;0.52;;;;;;;7.61;100.00;101725.22;5094737;28;20104;-65
2020/12/24 01:07:51;;;;;;;1.98;0.77;;;;;;;7.65;100.00;101742.84;5094254;28;20043;-66
2020/12/24 01:10:17;;;;;;;2.05;0.60;;;;;;;7.62;100.00;101754.94;5094477;28;20028;-65
2020/12/24 01:12:42;;;;;;;1.98;0.80;;;;;;;7.62;100.00;101765.81;5093355;28;20043;-66
2020/12/24 01:15:10;;;;;;;3.53;0.55;;;;;;;7.64;100.00;101769.19;5094491;28;20036;-65
2020/12/24 01:17:37;;;;;;;3.17;1.00;;;;;;;7.64;100.00;101773.78;5094137;28;20040;-65
2020/12/24 01:20:05;;;;;;;1.60;0.77;;;;;;;7.60;100.00;101783.38;5094280;28;20554;-66
2020/12/24 01:22:32;;;;;;;3.05;0.60;;;;;;;7.62;100.00;101792.16;5094365;28;20028;-66
2020/12/24 01:24:58;;;;;;;1.95;1.27;;;;;;;7.60;100.00;101794.25;5094065;28;20036;-65
2020/12/24 01:27:24;;;;;;;3.58;0.70;;;;;;;7.61;100.00;101813.06;5094343;28;20123;-65
2020/12/24 01:29:49;;;;;;;3.80;0.80;;;;;;;7.60;100.00;101810.56;5094224;28;20620;-66
2020/12/24 01:32:16;;;;;;;3.25;0.70;;;;;;;7.64;100.00;101820.03;5093983;28;20119;-66
2020/12/24 01:34:42;;;;;;;1.55;0.60;;;;;;;7.65;100.00;101829.84;5094604;28;20028;-66
2020/12/24 01:37:08;;;;;;;1.52;1.13;;;;;;;7.66;100.00;101831.53;5093890;28;20484;-66
2020/12/24 01:39:34;;;;;;;3.03;0.70;;;;;;;7.65;100.00;101841.56;5093879;28;20043;-65
2020/12/24 01:41:59;;;;;;;1.00;0.73;;;;;;;7.65;100.00;101851.59;5093925;28;20032;-65
2020/12/24 01:44:25;;;;;;;3.30;0.65;;;;;;;7.65;100.00;101846.16;5092839;28;20114;-65
2020/12/24 01:46:51;;;;;;;0.80;0.60;;;;;;;7.63;100.00;101845.50;5093623;28;20036;-66
2020/12/24 01:49:17;;;;;;;2.83;0.70;;;;;;;7.64;100.00;101858.09;5092481;28;20036;-66
2020/12/24 01:51:57;;;;;;;1.88;0.60;;;;;;;7.63;100.00;101869.97;5093705;28;20447;-66
2020/12/24 01:54:25;;;;;;;1.27;0.50;;;;;;;7.63;100.00;101869.97;5093806;28;20481;-66
2020/12/24 01:56:51;;;;;;;2.25;0.60;;;;;;;7.63;100.00;101875.41;5093649;28;20052;-66
2020/12/24 01:59:17;;;;;;;2.20;1.13;;;;;;;7.63;100.00;101881.69;5093630;28;20402;-65
2020/12/24 02:01:47;;;;;;;0.93;0.60;;;;;;;7.64;100.00;101891.56;5093510;28;20036;-66
2020/12/24 02:04:13;;;;;;;2.78;0.70;;;;;;;7.65;100.00;101897.84;5093488;28;20040;-66
2020/12/24 02:06:40;;;;;;;2.97;1.20;;;;;;;7.65;100.00;101906.81;5093843;28;20359;-66
2020/12/24 02:09:07;;;;;;;1.42;0.57;;;;;;;7.67;100.00;101912.91;5093214;28;20059;-66
2020/12/24 02:11:32;;;;;;;1.58;0.40;;;;;;;7.69;100.00;101918.16;5093503;28;20028;-65
2020/12/24 02:13:59;;;;;;;1.30;0.70;;;;;;;7.69;100.00;101918.16;5093351;28;20035;-65
2020/12/24 02:16:25;;;;;;;2.70;0.90;;;;;;;7.70;100.00;101928.00;5093195;28;20040;-66
2020/12/24 02:18:50;;;;;;;2.60;0.40;;;;;;;7.70;100.00;101925.25;5093221;28;20048;-66
2020/12/24 02:21:16;;;;;;;3.20;0.50;;;;;;;7.71;100.00;101938.66;5093202;28;20048;-66
2020/12/24 02:23:42;;;;;;;0.73;0.45;;;;;;;7.74;100.00;101923.81;5093081;28;20047;-65
2020/12/24 02:26:07;;;;;;;1.83;0.80;;;;;;;7.74;100.00;101937.44;5093086;28;20040;-65
2020/12/24 02:28:33;;;;;;;1.20;0.40;;;;;;;7.75;100.00;101949.97;5093030;28;20067;-66
2020/12/24 02:31:01;;;;;;;0.93;0.43;;;;;;;7.76;100.00;101946.22;5092894;28;20028;-66
2020/12/24 02:33:26;;;;;;;1.88;0.40;;;;;;;7.78;100.00;101960.47;5093021;28;20043;-66
2020/12/24 02:35:52;;;;;;;2.63;0.40;;;;;;;7.79;100.00;101964.88;5093026;28;20043;-66
2020/12/24 02:38:18;;;;;;;4.28;0.40;;;;;;;7.79;100.00;101973.03;5092564;28;20100;-65
2020/12/24 02:40:43;;;;;;;1.92;0.50;;;;;;;7.81;100.00;101993.56;5092873;28;20044;-66
2020/12/24 02:43:09;;;;;;;2.20;0.30;;;;;;;7.79;100.00;101994.78;5091513;28;20398;-65
2020/12/24 02:45:34;;;;;;;4.53;0.47;;;;;;;7.81;100.00;102003.63;5092720;28;20505;-65
2020/12/24 02:48:00;;;;;;;1.15;0.50;;;;;;;7.82;100.00;102008.00;5092954;28;20036;-65
2020/12/24 02:50:25;;;;;;;1.65;0.80;;;;;;;7.82;100.00;102010.72;5092821;28;20431;-65
2020/12/24 02:52:51;;;;;;;4.80;0.60;;;;;;;7.83;100.00;102020.56;5092418;28;20035;-65
2020/12/24 02:55:16;;;;;;;1.23;0.40;;;;;;;7.82;100.00;102013.47;5092586;28;20040;-66
2020/12/24 02:57:42;;;;;;;1.33;0.50;;;;;;;7.84;100.00;102030.41;5092460;28;20044;-66
2020/12/24 03:00:10;;;;;;;1.60;1.13;;;;;;;7.85;100.00;102042.97;5091825;28;20185;-65
2020/12/24 03:02:36;;;;;;;1.85;0.50;;;;;;;7.85;100.00;102032.94;5092394;28;20032;-65
2020/12/24 03:05:03;;;;;;;2.65;0.70;;;;;;;7.87;100.00;102049.06;5092339;28;20535;-66
2020/12/24 03:07:29;;;;;;;1.38;0.50;;;;;;;7.88;100.00;102042.59;5092096;28;20044;-65
2020/12/24 03:09:54;;;;;;;1.58;0.50;;;;;;;7.88;100.00;102050.75;5090883;28;20056;-65
2020/12/24 03:12:24;;;;;;;2.53;0.50;;;;;;;7.89;100.00;102071.47;5092335;28;20040;-65
2020/12/24 03:14:51;;;;;;;2.55;0.93;;;;;;;7.90;100.00;102056.81;5091986;28;20043;-65
2020/12/24 03:17:17;;;;;;;2.45;0.65;;;;;;;7.90;100.00;102067.72;5092012;28;20474;-65
2020/12/24 03:19:42;;;;;;;1.77;0.50;;;;;;;7.91;100.00;102074.84;5092127;28;20036;-66
2020/12/24 03:22:08;;;;;;;3.17;0.90;;;;;;;7.90;100.00;102070.44;5091812;28;20028;-66
2020/12/24 03:24:34;;;;;;;2.38;0.45;;;;;;;7.90;100.00;102084.03;5092090;28;20487;-65
2020/12/24 03:26:59;;;;;;;2.85;0.38;;;;;;;7.90;100.00;102089.47;5091964;28;20138;-66
2020/12/24 03:29:25;;;;;;;2.83;0.60;;;;;;;7.90;100.00;102100.34;5091899;28;20039;-65
2020/12/24 03:31:50;;;;;;;2.47;0.47;;;;;;;7.89;100.00;102093.22;5090347;28;20028;-66
2020/12/24 03:34:16;;;;;;;1.27;0.40;;;;;;;7.88;100.00;102099.72;5091815;28;20382;-66
2020/12/24 03:36:41;;;;;;;4.38;0.75;;;;;;;7.91;100.00;102095.75;5091876;28;20386;-66
2020/12/24 03:39:07;;;;;;;2.00;0.55;;;;;;;7.89;100.00;102095.94;5091513;28;20032;-66
2020/12/24 03:41:32;;;;;;;3.85;0.50;;;;;;;7.89;100.00;102106.00;5091749;28;20062;-66
2020/12/24 03:43:58;;;;;;;2.83;0.50;;;;;;;7.89;100.00;102106.84;5091594;28;20048;-65
2020/12/24 03:46:24;;;;;;;5.00;0.60;;;;;;;7.89;100.00;102128.59;5091542;28;20028;-64
2020/12/24 03:48:49;;;;;;;2.75;0.65;;;;;;;7.88;100.00;102129.63;5090131;28;20382;-66
2020/12/24 03:51:15;;;;;;;4.10;0.40;;;;;;;7.90;100.00;102137.59;5091638;28;20478;-66
2020/12/24 03:53:40;;;;;;;1.55;0.60;;;;;;;7.89;100.00;102150.34;5091269;28;20060;-65
2020/12/24 03:56:06;;;;;;;3.45;0.60;;;;;;;7.90;100.00;102156.63;5091488;28;20044;-64
2020/12/24 03:58:31;;;;;;;1.38;0.50;;;;;;;7.89;100.00;102174.84;5090080;28;20036;-66
2020/12/24 04:00:57;;;;;;;1.38;0.63;;;;;;;7.89;100.00;102180.28;5091085;28;20043;-66
2020/12/24 04:03:23;;;;;;;3.83;0.57;;;;;;;7.89;100.00;102191.16;5091326;28;20035;-65
2020/12/24 04:05:48;;;;;;;2.17;0.25;;;;;;;7.89;100.00;102180.28;5091317;28;20042;-65
2020/12/24 04:08:14;;;;;;;3.15;1.60;;;;;;;7.89;100.00;102196.59;5091025;28;20131;-66
2020/12/24 04:10:39;;;;;;;3.10;0.60;;;;;;;7.87;100.00;102185.06;5089317;28;20385;-65
2020/12/24 04:13:05;;;;;;;5.40;0.95;;;;;;;7.84;100.00;102201.78;5091194;28;20393;-65
2020/12/24 04:15:30;;;;;;;2.83;0.57;;;;;;;7.82;100.00;102201.13;5091028;28;20040;-66
2020/12/24 04:17:56;;;;;;;4.55;0.75;;;;;;;7.79;100.00;102196.06;5091022;28;20040;-66
2020/12/24 04:20:22;;;;;;;0.90;0.40;;;;;;;7.78;100.00;102199.81;5091097;28;20036;-65
2020/12/24 04:22:47;;;;;;;2.08;0.30;;;;;;;7.77;100.00;102214.44;5090886;28;20371;-65
2020/12/24 04:25:13;;;;;;;1.27;0.40;;;;;;;7.76;100.00;102218.19;5091093;28;20036;-66
2020/12/24 04:27:39;;;;;;;1.33;0.20;;;;;;;7.76;100.00;102220.91;5091308;28;20043;-65
2020/12/24 04:30:05;;;;;;;2.40;0.52;;;;;;;7.77;100.00;102244.34;5090921;28;20032;-66
2020/12/24 04:32:34;;;;;;;2.70;0.52;;;;;;;7.77;100.00;102252.53;5090890;28;20432;-66
2020/12/24 04:35:00;;;;;;;3.28;0.55;;;;;;;7.77;100.00;102263.41;5091062;28;20127;-66
2020/12/24 04:37:25;;;;;;;3.08;0.30;;;;;;;7.77;100.00;102263.41;5090732;28;20127;-65
2020/12/24 04:39:51;;;;;;;2.53;0.50;;;;;;;7.78;100.00;102275.97;5090838;28;20036;-64
2020/12/24 04:42:20;;;;;;;0.35;0.20;;;;;;;7.81;100.00;102281.06;5090885;28;20081;-66
2020/12/24 04:44:47;;;;;;;1.73;0.35;;;;;;;7.81;100.00;102283.78;5090684;28;20500;-66
2020/12/24 04:47:14;;;;;;;2.28;0.30;;;;;;;7.80;100.00;102288.34;5090846;28;20054;-65
2020/12/24 04:49:40;;;;;;;1.92;0.52;;;;;;;7.82;100.00;102307.22;5090699;28;20067;-65
2020/12/24 04:52:06;;;;;;;2.80;0.88;;;;;;;7.82;100.00;102299.06;5090683;28;20097;-65
2020/12/24 04:54:32;;;;;;;3.03;0.40;;;;;;;7.81;100.00;102305.53;5090676;28;20562;-66
2020/12/24 04:57:06;;;;;;;1.92;0.40;;;;;;;7.82;100.00;102312.66;5090750;28;20529;-65
2020/12/24 04:59:32;;;;;;;0.80;0.17;;;;;;;7.79;100.00;102315.72;5090551;28;20074;-65
2020/12/24 05:02:02;;;;;;;1.25;0.30;;;;;;;7.74;100.00;102318.19;5090680;28;20040;-65
2020/12/24 05:04:29;;;;;;;2.42;0.40;;;;;;;7.72;100.00;102325.69;5090959;28;20119;-66
2020/12/24 05:07:05;;;;;;;2.95;0.88;;;;;;;7.68;100.00;102329.81;5090427;28;20466;-65
2020/12/24 05:09:31;;;;;;;2.08;0.30;;;;;;;7.64;100.00;102340.22;5090539;28;20508;-66
2020/12/24 05:11:56;;;;;;;1.27;0.13;;;;;;;7.59;100.00;102341.78;5090648;28;20032;-66
2020/12/24 05:14:27;;;;;;;2.42;0.40;;;;;;;7.55;100.00;102336.72;5090507;28;20474;-66
2020/12/24 05:16:59;;;;;;;2.58;0.40;;;;;;;7.51;100.00;102346.28;5090566;28;20063;-66
2020/12/24 05:19:26;;;;;;;2.08;0.50;;;;;;;7.47;100.00;102338.72;5090714;28;20417;-66
2020/12/24 05:21:53;;;;;;;2.67;0.50;;;;;;;7.46;100.00;102348.75;5090654;28;20123;-66
2020/12/24 05:24:24;;;;;;;1.92;0.52;;;;;;;7.46;100.00;102340.59;5094290;28;20039;-65
2020/12/24 05:26:51;;;;;;;2.53;0.50;;;;;;;7.44;100.00;102353.47;5094265;28;20535;-65
2020/12/24 05:29:16;;;;;;;3.67;0.47;;;;;;;7.42;100.00;102354.69;5094049;28;20062;-65
2020/12/24 05:31:42;;;;;;;2.03;0.22;;;;;;;7.40;100.00;102365.75;5094258;28;20525;-65
2020/12/24 05:34:07;;;;;;;3.95;0.43;;;;;;;7.38;100.00;102373.25;5092719;28;20075;-66
2020/12/24 05:36:33;;;;;;;3.45;0.40;;;;;;;7.37;100.00;102396.03;5094240;28;20493;-65
2020/12/24 05:38:59;;;;;;;2.45;0.50;;;;;;;7.34;100.00;102404.56;5093874;28;20048;-65
2020/12/24 05:41:28;;;;;;;2.92;0.40;;;;;;;7.31;100.00;102410.38;5094175;28;20127;-65
2020/12/24 05:43:59;;;;;;;4.03;0.73;;;;;;;7.28;100.00;102413.44;5093733;28;20119;-66
2020/12/24 05:46:27;;;;;;;1.80;0.43;;;;;;;7.25;100.00;102427.38;5094050;28;20087;-66
2020/12/24 05:48:52;;;;;;;1.80;0.60;;;;;;;7.23;100.00;102434.88;5093790;28;20511;-66
2020/12/24 05:51:19;;;;;;;8.35;0.60;;;;;;;7.20;100.00;102437.97;5093678;28;20028;-65
2020/12/24 05:53:45;;;;;;;11.52;1.17;;;;;;;7.17;100.00;102457.34;5093916;28;20036;-66
2020/12/24 05:56:19;;;;;;;2.97;0.50;;;;;;;7.14;100.00;102452.28;5093709;28;20032;-65
2020/12/24 05:58:47;;;;;;;4.18;1.15;;;;;;;7.10;100.00;102459.06;5093585;28;20036;-66
2020/12/24 06:01:14;;;;;;;2.03;0.35;;;;;;;7.06;100.00;102466.75;5093577;28;20049;-65
2020/12/24 06:04:03;;;;;;;7.20;0.70;;;;;;;7.05;100.00;102466.94;5093510;28;20036;-65
2020/12/24 06:06:43;;;;;;;7.28;1.27;;;;;;;7.02;100.00;102459.97;5092187;28;20480;-66
2020/12/24 06:09:19;;;;;;;6.00;1.08;;;;;;;7.00;100.00;102451.16;5093164;28;20072;-65
2020/12/24 06:11:52;;;;;;;6.97;0.80;;;;;;;6.98;100.00;102463.25;5093563;28;20024;-65
2020/12/24 06:14:38;;;;;;;7.60;0.80;;;;;;;6.94;100.00;102460.91;5091860;28;20028;-66
2020/12/24 06:17:07;;;;;;;4.53;0.77;;;;;;;6.92;100.00;102471.06;5093505;28;20036;-65
2020/12/24 06:19:38;;;;;;;10.57;1.52;;;;;;;6.86;100.00;102471.78;5093190;28;20040;-66
2020/12/24 06:22:05;;;;;;;7.20;0.82;;;;;;;6.85;100.00;102478.25;5093136;28;20043;-66
2020/12/24 06:24:38;;;;;;;3.40;0.90;;;;;;;6.81;100.00;102485.06;5093229;28;20539;-66
2020/12/24 06:27:10;;;;;;;6.40;1.00;;;;;;;6.80;100.00;102490.69;5093174;28;20112;-65
2020/12/24 06:29:39;;;;;;;7.18;0.90;;;;;;;6.76;100.00;102476.56;5093069;28;20077;-65
2020/12/24 06:32:07;;;;;;;8.30;1.10;;;;;;;6.73;100.00;102493.22;5093063;28;20024;-66
2020/12/24 06:34:33;;;;;;;3.80;0.73;;;;;;;6.71;100.00;102498.00;5092114;28;20098;-65
2020/12/24 06:37:16;;;;;;;12.23;1.38;;;;;;;6.69;100.00;102512.78;5092887;28;20064;-65
2020/12/24 06:39:44;;;;;;;9.27;1.38;;;;;;;6.65;100.00;102506.84;5092849;28;20363;-66
2020/12/24 06:42:41;;;;;;;7.38;1.45;;;;;;;6.62;100.00;102508.06;5092668;28;20107;-66
2020/12/24 06:45:11;;;;;;;10.48;1.95;;;;;;;6.60;100.00;102498.41;5091744;28;20104;-66
2020/12/24 06:47:39;;;;;;;7.97;1.08;;;;;;;6.56;100.00;102506.03;5092576;28;20482;-66
2020/12/24 06:50:32;;;;;;;10.70;1.40;;;;;;;6.55;100.00;102511.63;5092456;28;20040;-66
2020/12/24 06:53:21;;;;;;;7.95;1.15;;;;;;;6.52;100.00;102517.41;5092881;28;20032;-66
2020/12/24 06:56:08;;;;;;;8.25;2.10;;;;;;;6.48;100.00;102513.38;5092737;28;20032;-65
2020/12/24 06:58:38;;;;;;;8.90;1.10;;;;;;;6.45;100.00;102533.56;5092321;28;20028;-66
2020/12/24 07:01:04;;;;;;;11.27;1.70;;;;;;;6.45;100.00;102538.16;5092681;28;20055;-66
2020/12/24 07:03:30;;;;;;;11.00;1.67;;;;;;;6.40;100.00;102540.50;5092456;28;20397;-65
2020/12/24 07:05:56;;;;;;;13.35;1.55;;;;;;;6.37;100.00;102540.84;5092226;28;20140;-66
2020/12/24 07:08:31;;;;;;;12.00;2.17;;;;;;;6.32;100.00;102555.81;5092177;28;20490;-66
2020/12/24 07:10:56;;;;;;;10.68;1.55;;;;;;;6.29;100.00;102567.00;5092369;28;20047;-66
2020/12/24 07:13:34;;;;;;;9.57;2.60;;;;;;;6.27;100.00;102541.91;5092089;28;20043;-66
2020/12/24 07:16:05;;;;;;;9.77;1.67;;;;;;;6.25;100.00;102573.81;5107256;28;20052;-66
2020/12/24 07:18:32;;;;;;;10.27;1.92;;;;;;;6.23;100.00;102580.38;5091981;28;20039;-66
2020/12/24 07:21:11;;;;;;;8.43;1.60;;;;;;;6.20;100.00;102584.28;5090514;28;20407;-65
2020/12/24 07:23:40;;;;;;;12.95;1.33;;;;;;;6.19;100.00;102592.63;5092021;28;20047;-66
2020/12/24 07:26:09;;;;;;;13.98;1.50;;;;;;;6.17;100.00;102595.50;5092022;28;20058;-66
2020/12/24 07:28:38;;;;;;;10.68;1.40;;;;;;;6.15;100.00;102613.81;5091738;28;20429;-66
2020/12/24 07:31:08;;;;;;;11.35;1.35;;;;;;;6.14;100.00;102627.56;5092073;28;20028;-66
2020/12/24 07:33:36;;;;;;;13.27;2.30;;;;;;;6.10;100.00;102627.06;5091882;28;20032;-66
2020/12/24 07:36:06;;;;;;;16.02;2.05;;;;;;;6.09;100.00;102619.94;5090333;28;20043;-66
2020/12/24 07:38:32;;;;;;;13.35;2.40;;;;;;;6.03;100.00;102620.59;5091736;28;20078;-65
2020/12/24 07:40:58;;;;;;;16.00;2.10;;;;;;;6.02;100.00;102641.44;5091643;28;20490;-66
2020/12/24 07:43:26;;;;;;;9.27;1.20;;;;;;;6.02;100.00;102630.59;5091537;28;20101;-66
2020/12/24 07:45:52;;;;;;;11.45;1.88;;;;;;;6.01;100.00;102633.47;5090741;28;20064;-66
2020/12/24 07:48:20;;;;;;;7.78;1.00;;;;;;;5.98;100.00;102628.38;5091524;28;20078;-65
2020/12/24 07:50:47;;;;;;;11.15;1.65;;;;;;;5.97;100.00;102642.97;5091667;28;20247;-65
2020/12/24 07:53:26;;;;;;;9.98;1.20;;;;;;;5.92;100.00;102639.91;5091602;28;20059;-66
2020/12/24 07:55:51;;;;;;;13.52;2.40;;;;;;;5.93;100.00;102652.47;5091451;28;20035;-65
2020/12/24 07:58:18;;;;;;;9.32;2.22;;;;;;;5.91;100.00;102662.63;5090172;28;20039;-66
2020/12/24 08:00:46;;;;;;;15.65;1.77;;;;;;;5.90;100.00;102663.63;5091287;28;20078;-66
2020/12/24 08:03:16;;;;;;;11.40;1.67;;;;;;;5.88;100.00;102665.63;5091330;28;20138;-66
2020/12/24 08:05:43;;;;;;;14.75;1.30;;;;;;;5.87;100.00;102670.19;5091240;28;20521;-65
2020/12/24 08:08:10;;;;;;;13.02;1.85;;;;;;;5.88;100.00;102687.31;5091259;28;20036;-68
2020/12/24 08:10:42;;;;;;;11.85;1.33;;;;;;;5.87;100.00;102693.75;5091553;28;20059;-65
2020/12/24 08:13:09;;;;;;;15.25;1.38;;;;;;;5.86;100.00;102698.34;5091037;28;20085;-65
2020/12/24 08:15:39;;;;;;;10.98;1.27;;;;;;;5.84;100.00;102694.09;5091175;28;20040;-65
2020/12/24 08:18:07;;;;;;;9.50;1.35;;;;;;;5.83;100.00;102711.38;5091206;28;20038;-65
2020/12/24 08:20:57;;;;;;;12.23;1.55;;;;;;;5.83;100.00;102711.38;5091166;28;20043;-66
2020/12/24 08:23:51;;;;;;;14.82;1.58;;;;;;;5.83;100.00;102716.81;5091209;28;20120;-66
2020/12/24 08:26:19;;;;;;;10.85;1.42;;;;;;;5.81;100.00;102726.97;5085865;28;20044;-66
2020/12/24 08:29:02;;;;;;;12.20;1.63;;;;;;;5.81;100.00;102735.09;5090858;28;20126;-65
2020/12/24 08:31:29;;;;;;;9.82;1.52;;;;;;;5.81;100.00;102740.53;5089670;28;20038;-66
2020/12/24 08:33:55;;;;;;;11.00;2.42;;;;;;;5.80;100.00;102746.97;5090726;28;20036;-65
2020/12/24 08:36:23;;;;;;;9.52;1.38;;;;;;;5.79;100.00;102748.81;5090966;28;20032;-66
2020/12/24 08:38:50;;;;;;;16.17;2.53;;;;;;;5.79;100.00;102753.41;5090884;28;20085;-66
2020/12/24 08:41:20;;;;;;;10.68;1.50;;;;;;;5.79;100.00;102762.38;5090656;28;20130;-66
2020/12/24 08:43:55;;;;;;;8.52;1.85;;;;;;;5.82;100.00;102764.75;5090875;28;20055;-65
2020/12/24 08:46:24;;;;;;;11.82;1.65;;;;;;;5.84;100.00;102778.16;5091350;28;20032;-66
2020/12/24 08:48:50;;;;;;;11.00;1.80;;;;;;;5.86;100.00;102782.41;5088708;28;20044;-67
2020/12/24 08:51:17;;;;;;;11.10;1.90;;;;;;;5.89;100.00;102797.50;5090457;28;20058;-67
2020/12/24 08:53:43;;;;;;;7.47;1.33;;;;;;;5.91;100.00;102806.38;5090642;28;20031;-68
2020/12/24 08:56:14;;;;;;;7.85;1.77;;;;;;;5.95;100.00;102813.16;5089533;28;20377;-66
2020/12/24 08:58:53;;;;;;;7.00;1.20;;;;;;;5.95;100.00;102815.88;5094674;28;20051;-68
2020/12/24 09:01:21;;;;;;;14.50;2.15;;;;;;;5.96;100.00;102809.44;5103270;28;20431;-70
2020/12/24 09:03:47;;;;;;;11.77;2.28;;;;;;;5.99;100.00;102809.97;5085719;28;20046;-68
2020/12/24 09:06:15;;;;;;;9.88;0.93;;;;;;;6.00;100.00;102824.38;5094101;28;20039;-67
2020/12/24 09:08:47;;;;;;;8.93;1.95;;;;;;;6.03;100.00;102829.47;5093183;28;20036;-64
2020/12/24 09:11:30;;;;;;;8.85;1.25;;;;;;;6.09;100.00;102842.38;5094593;28;20394;-67
2020/12/24 09:14:00;;;;;;;4.72;1.20;;;;;;;6.12;100.00;102842.06;5093296;28;20077;-67
2020/12/24 09:16:25;;;;;;;11.85;1.63;;;;;;;6.15;100.00;102839.00;5092450;28;20024;-64
2020/12/24 09:19:02;;;;;;;12.95;1.13;;;;;;;6.19;100.00;102839.53;5095541;28;20028;-67
2020/12/24 09:21:27;;;;;;;11.45;1.15;;;;;;;6.23;100.00;102832.75;5093834;28;20530;-73
2020/12/24 09:23:53;;;;;;;6.20;0.90;;;;;;;6.25;100.00;102828.88;5099968;28;20066;-64
2020/12/24 09:26:19;;;;;;;8.18;1.33;;;;;;;6.26;100.00;102844.16;5097332;28;20047;-63
2020/12/24 09:28:44;;;;;;;9.50;1.98;;;;;;;6.27;100.00;102850.41;5111041;28;20040;-66
2020/12/24 09:31:10;;;;;;;6.90;1.15;;;;;;;6.24;100.00;102861.59;5100362;28;20469;-63
2020/12/24 09:33:35;;;;;;;5.70;0.90;;;;;;;6.24;100.00;102867.84;5097720;28;20044;-65
2020/12/24 09:36:01;;;;;;;11.48;1.48;;;;;;;6.28;100.00;102866.53;5093660;28;20036;-67
2020/12/24 09:38:27;;;;;;;9.63;1.00;;;;;;;6.33;100.00;102877.75;5101416;28;20031;-65
2020/12/24 09:40:52;;;;;;;10.07;0.98;;;;;;;6.38;100.00;102879.09;5112122;28;20035;-68
2020/12/24 09:43:18;;;;;;;7.47;1.63;;;;;;;6.44;100.00;102889.31;5098885;28;20754;-64
2020/12/24 09:45:44;;;;;;;8.50;1.35;;;;;;;6.51;100.00;102880.34;5096275;28;20043;-65
2020/12/24 09:48:09;;;;;;;7.10;0.95;;;;;;;6.56;100.00;102882.56;5092830;28;20040;-67
2020/12/24 09:50:35;;;;;;;7.20;1.27;;;;;;;6.59;100.00;102887.66;5092619;28;20028;-65
2020/12/24 09:53:02;;;;;;;10.25;1.38;;;;;;;6.66;100.00;102902.28;5093038;28;20405;-69
2020/12/24 09:55:28;;;;;;;12.93;1.65;;;;;;;6.73;100.00;102905.16;5093228;28;20044;-68
2020/12/24 09:57:53;;;;;;;13.50;2.28;;;;;;;6.74;100.00;102905.00;5099745;28;20035;-67
2020/12/24 10:00:19;;;;;;;5.35;1.25;;;;;;;6.75;100.00;102914.84;5092047;28;20044;-67
2020/12/24 10:02:44;;;;;;;8.93;1.35;;;;;;;6.76;100.00;102915.69;5093109;28;20044;-62
2020/12/24 10:05:10;;;;;;;8.88;1.02;;;;;;;6.75;100.00;102923.00;5092920;28;20040;-65
2020/12/24 10:07:36;;;;;;;8.73;1.60;;;;;;;6.77;100.00;102923.69;5095171;28;20072;-65
2020/12/24 10:10:03;;;;;;;7.53;1.90;;;;;;;6.79;100.00;102927.09;5093583;28;20060;-66
2020/12/24 10:12:29;;;;;;;5.70;0.88;;;;;;;6.85;100.00;102925.56;5092334;28;20028;-70
2020/12/24 10:14:55;;;;;;;7.80;1.50;;;;;;;6.87;100.00;102935.25;5092692;28;20044;-66
2020/12/24 10:17:22;;;;;;;7.47;2.40;;;;;;;6.90;100.00;102932.19;5103991;28;20039;-67
2020/12/24 10:19:48;;;;;;;6.40;1.15;;;;;;;6.93;100.00;102934.56;5102460;28;20032;-65
2020/12/24 10:22:14;;;;;;;9.95;1.10;;;;;;;6.93;100.00;102942.72;5092422;28;20494;-64
2020/12/24 10:24:41;;;;;;;6.43;1.23;;;;;;;7.04;100.00;102951.59;5092345;28;20032;-68
2020/12/24 10:27:07;;;;;;;6.18;0.95;;;;;;;7.14;100.00;102952.31;5104991;28;20035;-67
2020/12/24 10:29:33;;;;;;;8.27;1.50;;;;;;;7.29;100.00;102966.06;5096770;28;20043;-65
2020/12/24 10:31:59;;;;;;;20.75;1.33;;;;;;;7.33;100.00;102967.44;5092296;28;20390;-65
2020/12/24 10:34:25;;;;;;;5.28;1.40;;;;;;;7.39;100.00;102956.72;5092704;28;20039;-67
2020/12/24 10:36:50;;;;;;;5.50;1.00;;;;;;;7.40;100.00;102963.84;5092645;28;20090;-65
2020/12/24 10:39:16;;;;;;;5.90;0.77;;;;;;;7.54;100.00;102960.47;5090843;28;20451;-64
2020/12/24 10:41:47;;;;;;;7.18;2.08;;;;;;;7.65;100.00;102963.88;5098083;28;20039;-65
2020/12/24 10:44:12;;;;;;;13.65;1.58;;;;;;;7.72;100.00;102970.31;5105806;28;20089;-64
2020/12/24 10:46:38;;;;;;;5.82;0.60;;;;;;;7.66;100.00;102974.59;5097327;28;20579;-65
2020/12/24 10:49:04;;;;;;;6.53;1.17;;;;;;;7.63;100.00;102974.03;5103421;28;20044;-64
2020/12/24 10:51:30;;;;;;;3.60;0.45;;;;;;;7.60;100.00;102977.13;5092232;28;20032;-65
2020/12/24 10:53:55;;;;;;;3.47;1.35;;;;;;;7.52;100.00;102967.94;5092250;28;20123;-65
2020/12/24 10:56:21;;;;;;;4.05;0.90;;;;;;;7.46;100.00;102970.47;5092068;28;20127;-67
2020/12/24 10:58:48;;;;;;;4.85;0.60;;;;;;;7.42;100.00;102983.56;5091144;28;20075;-67
2020/12/24 11:01:16;;;;;;;4.75;0.80;;;;;;;7.40;100.00;102980.16;5090976;28;20500;-68
2020/12/24 11:03:42;;;;;;;4.97;1.00;;;;;;;7.40;100.00;102974.72;5091413;28;20101;-65
2020/12/24 11:06:14;;;;;;;8.73;1.40;;;;;;;7.37;100.00;102979.66;5091467;28;20071;-67
2020/12/24 11:08:40;;;;;;;10.48;1.30;;;;;;;7.37;100.00;102985.09;5091957;28;20035;-67
2020/12/24 11:11:05;;;;;;;7.57;0.75;;;;;;;7.34;100.00;102989.00;5092504;28;20098;-67
2020/12/24 11:13:31;;;;;;;3.83;1.00;;;;;;;7.25;100.00;102981.84;5092151;28;20040;-66
2020/12/24 11:15:56;;;;;;;5.20;1.10;;;;;;;7.24;100.00;102996.47;5092010;28;20040;-67
2020/12/24 11:18:22;;;;;;;4.70;0.90;;;;;;;7.30;100.00;102978.66;5092346;28;20040;-66
2020/12/24 11:20:47;;;;;;;7.15;1.02;;;;;;;7.30;100.00;102982.22;5091542;28;20478;-66
2020/12/24 11:23:13;;;;;;;5.85;1.25;;;;;;;7.27;100.00;102971.66;5091848;28;20052;-67
2020/12/24 11:25:38;;;;;;;5.63;1.08;;;;;;;7.19;100.00;102977.09;5090758;28;20036;-67
2020/12/24 11:28:04;;;;;;;8.07;0.73;;;;;;;7.17;100.00;102979.97;5092002;28;20043;-66